map of IGL home
IGL - Airport
Location
City:  Izmir, Izmir, Turkey
Name:Cigli Military
ICAO:LTBL
IATA:IGL

Details
Type:Airport (Aerodrome, Airfield)
Use:Military
Latitude:3830'47"N (38.513022)
Longitude:2700'36"E (27.010053)
Datum:WGS 1984
Elevation:16 ft (5 m)
Variation:4.99E (WMM2015 magnetic declination)
0.10 annual change
Runways:1
Longest:9821 × 147 ft (2993 × 45 m), paved

Time
Time Zone:UTC+3
Local Time:

Weather
METAR:LTBL 161250Z 31013KT 9999 FEW040 25/15 Q1017 NOSIG RMK RWY17 32014KT

Related Locations
Nearby:
Farthest:RVV: 11376 mi / 18307 km
Raivavae, Tubuai Islands, Austral Islands, PF

Find:

   beyond  
but within

Other Information
Maps:
NOTAMs:
Links:
Sources:

  
  • flag of Turkey
  

Airport Diagram

Airport diagram for IGL

Larger airport diagram (OBSOLETE) from NGA

Sectional Chart

Flight Planning
at skyvector.com

Satellite Image

Google Maps Satellite view

 

Copyright © 2004-2018 Karl L. Swartz. All rights reserved.
The Great Circle Mapper name and logo are trademarks of the Great Circle Mapper.
All other trademarks mentioned herein belong to their respective owners.
Please see credits for attibutions and further copyright information.

  Follow gcmap on Facebook Follow gcmap on Twitter Follow gcmap on Google+ GCmap on LinkedIn

hCard Microformat

Geo Microformat